Time;durP1;ratioP1;P1;durP2;ratioP2;P2;SDS_P1;SDS_P2;PMS_P1;PMS_P2;Temp;Humidity;BMP_temperature;BMP_pressure;BME280_temperature;BME280_humidity;BME280_pressure;Samples;Min_cycle;Max_cycle;Signal;HPM_P1;HPM_P2
2022/03/28 00:00:57;;;;;;;15.13;7.00;;;7.30;99.90;;;;;;5067048;28;20024;-75
2022/03/28 00:03:29;;;;;;;18.05;7.15;;;7.20;99.90;;;;;;5085281;28;20080;-79
2022/03/28 00:05:55;;;;;;;19.35;5.88;;;7.20;99.90;;;;;;5083764;28;20085;-75
2022/03/28 00:08:21;;;;;;;15.73;6.18;;;7.20;99.90;;;;;;5085285;28;20017;-76
2022/03/28 00:10:47;;;;;;;19.15;5.85;;;7.20;99.90;;;;;;5085432;28;20051;-77
2022/03/28 00:13:17;;;;;;;16.83;6.43;;;7.20;99.90;;;;;;5067376;28;20123;-77
2022/03/28 00:15:43;;;;;;;21.27;7.65;;;7.20;99.90;;;;;;5085558;28;20070;-75
2022/03/28 00:18:10;;;;;;;20.08;6.35;;;7.20;99.90;;;;;;5067242;28;20017;-76
2022/03/28 00:20:36;;;;;;;13.50;6.60;;;7.30;99.90;;;;;;5078613;28;20075;-77
2022/03/28 00:23:07;;;;;;;20.70;6.75;;;7.30;99.90;;;;;;5084300;28;20381;-77
2022/03/28 00:25:35;;;;;;;15.88;7.57;;;7.30;99.90;;;;;;5066012;28;20040;-75
2022/03/28 00:28:01;;;;;;;20.80;7.75;;;7.30;99.90;;;;;;5085048;28;20098;-75
2022/03/28 00:30:42;;;;;;;17.02;7.32;;;7.30;99.90;;;;;;5067592;28;20497;-79
2022/03/28 00:33:11;;;;;;;20.30;7.88;;;7.30;99.90;;;;;;5066595;28;20050;-76
2022/03/28 00:35:37;;;;;;;18.40;6.93;;;7.30;99.90;;;;;;5065034;28;20282;-75
2022/03/28 00:38:04;;;;;;;18.80;6.75;;;7.40;99.90;;;;;;5084933;28;20032;-75
2022/03/28 00:40:32;;;;;;;18.25;7.07;;;7.30;99.90;;;;;;5084800;28;20048;-76
2022/03/28 00:43:08;;;;;;;16.20;6.43;;;7.20;99.90;;;;;;5069061;28;20025;-77
2022/03/28 00:45:35;;;;;;;14.55;6.07;;;7.20;99.90;;;;;;5046808;28;20046;-77
2022/03/28 00:48:02;;;;;;;11.63;5.38;;;7.20;99.90;;;;;;5046930;28;20057;-76
2022/03/28 00:50:30;;;;;;;16.85;5.82;;;7.30;99.90;;;;;;5064532;28;20028;-77
2022/03/28 00:52:58;;;;;;;16.13;5.75;;;7.30;99.90;;;;;;5065160;28;20037;-76
2022/03/28 00:55:31;;;;;;;21.83;6.47;;;7.20;99.90;;;;;;5055479;28;20123;-76
2022/03/28 00:58:48;;;;;;;14.15;6.15;;;7.20;99.90;;;;;;5102866;28;20483;-78
2022/03/28 01:01:14;;;;;;;11.95;5.72;;;7.10;99.90;;;;;;5103043;28;20024;-78
2022/03/28 01:03:40;;;;;;;12.73;5.55;;;7.00;99.90;;;;;;5101087;28;20028;-76
2022/03/28 01:06:13;;;;;;;22.73;5.70;;;7.10;99.90;;;;;;5102914;28;20596;-77
2022/03/28 01:08:38;;;;;;;13.30;6.20;;;7.20;99.90;;;;;;5102172;28;20024;-73
2022/03/28 01:11:06;;;;;;;13.10;6.13;;;7.10;99.90;;;;;;5102302;28;20028;-77
2022/03/28 01:13:33;;;;;;;14.00;5.80;;;7.10;99.90;;;;;;5102941;28;20031;-78
2022/03/28 01:15:59;;;;;;;15.30;5.68;;;7.10;99.90;;;;;;5100886;28;20055;-79
2022/03/28 01:18:26;;;;;;;13.77;6.07;;;7.10;99.90;;;;;;5101069;28;20158;-77
2022/03/28 01:21:01;;;;;;;22.00;6.80;;;7.00;99.90;;;;;;5102354;28;20032;-75
2022/03/28 01:23:38;;;;;;;17.45;7.18;;;7.00;99.90;;;;;;5102160;28;20032;-76
2022/03/28 01:26:04;;;;;;;12.75;5.85;;;7.10;99.90;;;;;;5101033;28;20021;-74
2022/03/28 01:28:29;;;;;;;17.10;6.57;;;7.00;99.90;;;;;;5102021;28;20020;-75
2022/03/28 01:30:55;;;;;;;14.73;6.88;;;7.00;99.90;;;;;;5101934;28;20035;-75
2022/03/28 01:33:23;;;;;;;13.80;6.85;;;7.00;99.90;;;;;;5101495;28;20032;-76
2022/03/28 01:35:52;;;;;;;16.13;5.97;;;7.00;99.90;;;;;;5102199;28;20028;-76
2022/03/28 01:38:19;;;;;;;21.83;6.25;;;7.10;99.90;;;;;;5100283;28;20571;-76
2022/03/28 01:40:48;;;;;;;15.63;5.50;;;7.10;99.90;;;;;;5101455;28;20392;-75
2022/03/28 01:43:14;;;;;;;12.68;5.32;;;7.20;99.90;;;;;;5100186;28;20488;-78
2022/03/28 01:45:41;;;;;;;11.43;5.18;;;7.10;99.90;;;;;;5100072;28;20082;-79
2022/03/28 01:48:15;;;;;;;9.68;4.18;;;7.10;99.90;;;;;;5100287;28;20034;-78
2022/03/28 01:50:41;;;;;;;7.57;4.20;;;7.10;99.90;;;;;;5101452;28;20032;-77
2022/03/28 01:53:07;;;;;;;13.10;4.13;;;6.90;99.90;;;;;;5099279;28;20089;-76
2022/03/28 01:55:32;;;;;;;11.43;4.00;;;6.70;99.90;;;;;;5100365;28;20020;-77
2022/03/28 01:57:59;;;;;;;10.85;4.28;;;6.70;99.90;;;;;;5099427;28;20071;-78
2022/03/28 02:00:31;;;;;;;14.60;5.20;;;6.70;99.90;;;;;;5099618;28;20032;-76
2022/03/28 02:02:57;;;;;;;8.50;4.43;;;6.70;99.90;;;;;;5101268;28;20024;-77
2022/03/28 02:05:23;;;;;;;10.68;4.45;;;6.70;99.90;;;;;;5100970;28;20033;-78
2022/03/28 02:07:49;;;;;;;10.90;5.53;;;6.70;99.90;;;;;;5100419;28;20035;-76
2022/03/28 02:10:18;;;;;;;17.90;5.78;;;6.70;99.90;;;;;;5087457;28;20019;-76
2022/03/28 02:12:44;;;;;;;13.05;5.72;;;6.70;99.90;;;;;;5087722;28;20036;-74
2022/03/28 02:15:29;;;;;;;12.45;6.13;;;6.80;99.90;;;;;;5086957;28;20388;-77
2022/03/28 02:17:55;;;;;;;11.40;6.30;;;6.70;99.90;;;;;;5086287;28;20033;-75
2022/03/28 02:20:20;;;;;;;12.57;5.95;;;6.70;99.90;;;;;;5087344;28;20058;-75
2022/03/28 02:22:50;;;;;;;13.25;6.10;;;6.60;99.90;;;;;;5085458;28;20029;-76
2022/03/28 02:25:17;;;;;;;13.00;5.85;;;6.70;99.90;;;;;;5085906;28;20077;-75
2022/03/28 02:27:44;;;;;;;16.15;7.10;;;6.70;99.90;;;;;;5087096;28;20025;-78
2022/03/28 02:30:11;;;;;;;13.85;6.78;;;6.70;99.90;;;;;;5086522;28;20386;-76
2022/03/28 02:32:41;;;;;;;12.18;6.03;;;6.70;99.90;;;;;;5085669;28;20063;-76
2022/03/28 02:35:08;;;;;;;17.05;6.50;;;6.60;99.90;;;;;;5085559;28;20091;-76
2022/03/28 02:37:34;;;;;;;13.63;5.82;;;6.60;99.90;;;;;;5085704;28;20500;-76
2022/03/28 02:40:00;;;;;;;13.68;6.15;;;6.70;99.90;;;;;;5085502;28;20096;-77
2022/03/28 02:42:26;;;;;;;13.65;5.43;;;6.70;99.90;;;;;;5086730;28;20028;-74
2022/03/28 02:44:52;;;;;;;19.83;7.72;;;6.70;99.90;;;;;;5086490;28;20027;-75
2022/03/28 02:47:22;;;;;;;14.13;6.85;;;6.70;99.90;;;;;;5086650;28;20056;-74
2022/03/28 02:49:49;;;;;;;16.35;6.75;;;6.70;99.90;;;;;;5084739;28;20480;-78
2022/03/28 02:52:15;;;;;;;25.33;6.55;;;6.70;99.90;;;;;;5086980;28;20032;-76
2022/03/28 02:54:41;;;;;;;10.88;5.30;;;6.60;99.90;;;;;;5086791;28;20059;-74
2022/03/28 02:57:06;;;;;;;15.20;6.75;;;6.50;99.90;;;;;;5084206;28;20115;-77
2022/03/28 02:59:32;;;;;;;23.05;8.55;;;6.40;99.90;;;;;;5085314;28;20032;-76
2022/03/28 03:01:58;;;;;;;15.88;7.03;;;6.50;99.90;;;;;;5085172;28;20427;-76
2022/03/28 03:04:25;;;;;;;16.55;7.07;;;6.60;99.90;;;;;;5085633;28;20469;-76
2022/03/28 03:06:51;;;;;;;17.75;7.18;;;6.60;99.90;;;;;;5086358;28;20092;-74
2022/03/28 03:09:18;;;;;;;19.55;8.18;;;6.60;99.90;;;;;;5086639;28;20024;-76
2022/03/28 03:11:44;;;;;;;19.60;8.07;;;6.60;99.90;;;;;;5085625;28;20059;-75
2022/03/28 03:14:09;;;;;;;26.25;8.55;;;6.60;99.90;;;;;;5086147;28;20024;-77
2022/03/28 03:16:35;;;;;;;13.45;6.55;;;6.70;99.90;;;;;;5085880;28;20032;-76
2022/03/28 03:19:00;;;;;;;20.63;8.48;;;6.70;99.90;;;;;;5083288;28;20032;-77
2022/03/28 03:21:26;;;;;;;23.10;7.85;;;6.70;99.90;;;;;;5074675;28;20025;-76
2022/03/28 03:23:52;;;;;;;16.35;7.43;;;6.70;99.90;;;;;;5076187;28;20023;-75
2022/03/28 03:26:20;;;;;;;17.55;7.00;;;6.70;99.90;;;;;;5085067;28;20031;-78
2022/03/28 03:28:46;;;;;;;17.85;8.18;;;6.60;99.90;;;;;;5085236;28;20427;-77
2022/03/28 03:31:12;;;;;;;18.80;6.53;;;6.60;99.90;;;;;;5085589;28;20070;-76
2022/03/28 03:33:37;;;;;;;14.40;6.75;;;6.60;99.90;;;;;;5084248;28;20032;-77
2022/03/28 03:36:03;;;;;;;17.63;7.47;;;6.60;99.90;;;;;;5084518;28;20025;-77
2022/03/28 03:38:28;;;;;;;14.82;6.60;;;6.60;99.90;;;;;;5084800;28;20079;-77
2022/03/28 03:40:55;;;;;;;16.65;6.18;;;6.60;99.90;;;;;;5065446;28;20085;-78
2022/03/28 03:43:21;;;;;;;16.67;8.10;;;6.60;99.90;;;;;;5065636;28;20091;-77
2022/03/28 03:45:49;;;;;;;18.10;7.07;;;6.70;99.90;;;;;;5065196;28;20075;-77
2022/03/28 03:48:14;;;;;;;17.15;7.45;;;6.70;99.90;;;;;;5065580;28;20028;-76
2022/03/28 03:50:41;;;;;;;15.73;7.45;;;6.60;99.90;;;;;;5065099;28;20151;-76
2022/03/28 03:53:08;;;;;;;20.65;8.05;;;6.70;99.90;;;;;;5080624;28;20029;-80
2022/03/28 03:55:33;;;;;;;17.02;7.53;;;6.70;99.90;;;;;;5065697;28;20487;-77
2022/03/28 03:57:59;;;;;;;20.98;6.82;;;6.70;99.90;;;;;;5064707;28;20048;-79
2022/03/28 04:00:25;;;;;;;18.45;6.30;;;6.70;99.90;;;;;;5064974;28;20036;-79
2022/03/28 04:02:50;;;;;;;16.77;6.78;;;6.60;99.90;;;;;;5065469;28;20025;-78
2022/03/28 04:05:17;;;;;;;19.65;7.30;;;6.60;99.90;;;;;;5066917;28;20035;-78
2022/03/28 04:08:00;;;;;;;12.90;6.45;;;6.60;99.90;;;;;;5085011;28;20432;-77
2022/03/28 04:10:38;;;;;;;11.77;5.75;;;6.60;99.90;;;;;;5079425;28;20035;-79
2022/03/28 04:13:04;;;;;;;13.88;5.50;;;6.60;99.90;;;;;;5064966;28;20025;-77
2022/03/28 04:15:30;;;;;;;11.23;5.20;;;6.50;99.90;;;;;;5063136;28;20116;-80
2022/03/28 04:17:56;;;;;;;8.63;4.78;;;6.40;99.90;;;;;;5064907;28;20037;-75
2022/03/28 04:20:29;;;;;;;13.82;4.93;;;6.30;99.90;;;;;;5067060;28;20032;-78
2022/03/28 04:22:55;;;;;;;10.10;5.05;;;6.30;99.90;;;;;;5065739;28;20092;-77
2022/03/28 04:25:21;;;;;;;9.02;3.40;;;6.20;99.90;;;;;;5064934;28;20029;-76
2022/03/28 04:27:47;;;;;;;7.55;3.38;;;6.10;99.90;;;;;;5082566;28;20098;-77
2022/03/28 04:30:14;;;;;;;6.15;2.97;;;6.10;99.90;;;;;;5064825;28;20029;-78
2022/03/28 04:32:47;;;;;;;10.38;3.25;;;6.00;99.90;;;;;;5068413;28;20040;-77
2022/03/28 04:35:14;;;;;;;10.60;3.92;;;6.00;99.90;;;;;;5064244;28;20040;-78
2022/03/28 04:37:41;;;;;;;11.00;4.13;;;5.90;99.90;;;;;;5063086;28;20048;-75
2022/03/28 04:40:13;;;;;;;12.55;5.18;;;6.10;99.90;;;;;;5071055;28;20029;-77
2022/03/28 04:42:52;;;;;;;11.35;5.22;;;6.00;99.90;;;;;;5084955;28;20074;-78
2022/03/28 04:45:23;;;;;;;12.80;4.93;;;6.00;99.90;;;;;;5083809;28;20021;-78
2022/03/28 04:47:48;;;;;;;9.10;4.80;;;6.00;99.90;;;;;;5083055;28;20055;-78
2022/03/28 04:50:14;;;;;;;16.08;5.00;;;5.90;99.90;;;;;;5084990;28;20036;-73
2022/03/28 04:52:40;;;;;;;10.45;3.55;;;6.00;99.90;;;;;;5084055;28;20444;-75
2022/03/28 04:55:06;;;;;;;10.77;3.72;;;6.00;99.90;;;;;;5070530;28;20035;-74
2022/03/28 04:57:32;;;;;;;6.93;3.13;;;6.10;99.90;;;;;;5080854;28;20055;-73
2022/03/28 04:59:58;;;;;;;8.27;3.45;;;6.10;99.90;;;;;;5063703;28;20079;-73
2022/03/28 05:02:23;;;;;;;12.23;3.17;;;5.90;99.90;;;;;;5062781;28;20024;-73
2022/03/28 05:04:49;;;;;;;12.13;3.80;;;6.00;99.90;;;;;;5063387;28;20025;-74
2022/03/28 05:07:29;;;;;;;6.75;3.22;;;6.00;99.90;;;;;;5064112;28;20025;-72
2022/03/28 05:10:01;;;;;;;9.48;2.95;;;6.00;99.90;;;;;;5063054;28;20073;-75
2022/03/28 05:12:27;;;;;;;10.07;3.40;;;6.00;99.90;;;;;;5061099;28;20049;-72
2022/03/28 05:14:53;;;;;;;6.97;2.72;;;6.00;99.90;;;;;;5062992;28;20051;-75
2022/03/28 05:17:30;;;;;;;11.02;4.00;;;6.10;99.90;;;;;;5062108;28;20036;-73
2022/03/28 05:19:57;;;;;;;8.63;3.40;;;6.10;99.90;;;;;;5063070;28;20086;-72
2022/03/28 05:22:23;;;;;;;8.77;4.20;;;6.10;99.90;;;;;;5069283;28;20029;-74
2022/03/28 05:24:58;;;;;;;13.38;4.45;;;6.00;99.90;;;;;;5077973;28;20079;-74
2022/03/28 05:27:24;;;;;;;4.88;2.47;;;6.10;99.90;;;;;;5064708;28;20033;-73
2022/03/28 05:29:50;;;;;;;5.90;2.50;;;6.20;99.90;;;;;;5068581;28;20036;-74
2022/03/28 05:32:18;;;;;;;5.05;2.40;;;6.10;99.90;;;;;;5067572;28;20025;-74
2022/03/28 05:34:44;;;;;;;4.70;2.47;;;6.00;99.90;;;;;;5066702;28;20025;-74
2022/03/28 05:37:12;;;;;;;6.18;3.45;;;6.10;99.90;;;;;;5063678;28;20052;-74
2022/03/28 05:39:39;;;;;;;8.57;3.22;;;6.00;99.90;;;;;;5062388;28;20112;-72
2022/03/28 05:42:07;;;;;;;3.55;1.65;;;6.00;99.90;;;;;;5063499;28;20374;-74
2022/03/28 05:44:34;;;;;;;6.68;2.50;;;6.00;99.90;;;;;;5082235;28;20027;-77
2022/03/28 05:46:59;;;;;;;6.43;2.83;;;6.00;99.90;;;;;;5087627;28;20029;-73
2022/03/28 05:49:26;;;;;;;9.18;2.92;;;5.90;99.90;;;;;;5085335;28;20036;-75
2022/03/28 05:51:53;;;;;;;8.20;2.72;;;5.90;99.90;;;;;;5073482;28;20029;-74
2022/03/28 05:54:19;;;;;;;6.93;3.15;;;5.90;99.90;;;;;;5082843;28;20083;-74
2022/03/28 05:56:45;;;;;;;8.20;2.95;;;5.90;99.90;;;;;;5071823;28;20060;-77
2022/03/28 05:59:14;;;;;;;6.00;3.05;;;5.90;99.90;;;;;;5070080;28;20036;-78
2022/03/28 06:01:40;;;;;;;15.63;3.42;;;5.90;99.90;;;;;;5075242;28;20024;-75
2022/03/28 06:04:06;;;;;;;5.63;3.28;;;5.90;99.90;;;;;;5080749;28;20161;-75
2022/03/28 06:06:33;;;;;;;12.75;3.10;;;5.90;99.90;;;;;;5072025;28;20064;-74
2022/03/28 06:08:59;;;;;;;4.32;2.45;;;5.90;99.90;;;;;;5066632;28;20306;-75
2022/03/28 06:11:27;;;;;;;9.00;3.40;;;6.00;99.90;;;;;;5066645;28;20084;-74
2022/03/28 06:13:54;;;;;;;6.78;2.88;;;6.10;99.90;;;;;;5067523;28;20519;-75
2022/03/28 06:16:20;;;;;;;7.65;3.40;;;6.00;99.90;;;;;;5075583;28;20025;-77
2022/03/28 06:18:46;;;;;;;12.35;4.18;;;6.00;99.90;;;;;;5067145;28;20033;-74
2022/03/28 06:21:12;;;;;;;13.38;4.22;;;5.90;99.90;;;;;;5067691;28;20040;-75
2022/03/28 06:23:38;;;;;;;10.73;4.22;;;6.00;99.90;;;;;;5066534;28;20090;-77
2022/03/28 06:26:04;;;;;;;7.28;3.15;;;6.00;99.90;;;;;;5068431;28;20029;-75
2022/03/28 06:28:40;;;;;;;17.65;4.28;;;6.10;99.90;;;;;;5067269;28;20037;-76
2022/03/28 06:31:07;;;;;;;16.33;5.07;;;6.10;99.90;;;;;;5065698;28;20035;-74
2022/03/28 06:33:33;;;;;;;11.10;5.85;;;6.20;99.90;;;;;;5066538;28;20025;-74
2022/03/28 06:35:59;;;;;;;16.00;5.55;;;6.20;99.90;;;;;;5065654;28;20033;-74
2022/03/28 06:38:24;;;;;;;12.05;5.53;;;6.30;99.90;;;;;;5066712;28;20044;-75
2022/03/28 06:40:50;;;;;;;11.80;4.60;;;6.20;99.90;;;;;;5080955;28;20039;-75
2022/03/28 06:43:25;;;;;;;11.50;4.38;;;6.30;99.90;;;;;;5084633;28;20031;-77
2022/03/28 06:45:51;;;;;;;9.45;4.32;;;6.30;99.90;;;;;;5075335;28;20064;-74
2022/03/28 06:48:20;;;;;;;7.72;4.15;;;6.20;99.90;;;;;;5073296;28;20077;-77
2022/03/28 06:50:45;;;;;;;7.68;3.38;;;6.30;99.90;;;;;;5064825;28;20037;-75
2022/03/28 06:53:12;;;;;;;9.00;3.90;;;6.20;99.90;;;;;;5065414;28;20025;-75
2022/03/28 06:55:38;;;;;;;7.22;3.78;;;6.10;99.90;;;;;;5066514;28;20465;-75
2022/03/28 06:58:04;;;;;;;7.35;3.88;;;6.10;99.90;;;;;;5067053;28;20106;-76
2022/03/28 07:00:30;;;;;;;6.72;3.25;;;6.10;99.90;;;;;;5066978;28;20033;-75
2022/03/28 07:02:55;;;;;;;6.63;3.15;;;6.10;99.90;;;;;;5065937;28;20035;-74
2022/03/28 07:05:21;;;;;;;6.15;2.83;;;6.10;99.90;;;;;;5080902;28;20118;-75
2022/03/28 07:07:49;;;;;;;7.65;3.53;;;6.10;99.90;;;;;;5085074;28;20054;-74
2022/03/28 07:10:19;;;;;;;6.90;3.05;;;6.10;99.90;;;;;;5076371;28;20048;-75
2022/03/28 07:13:04;;;;;;;6.72;3.33;;;6.10;99.90;;;;;;5066350;28;20020;-74
2022/03/28 07:15:30;;;;;;;7.10;3.15;;;6.10;99.90;;;;;;5073622;28;20032;-74
2022/03/28 07:18:02;;;;;;;6.45;2.97;;;6.10;99.90;;;;;;5074191;28;20044;-74
2022/03/28 07:20:30;;;;;;;7.97;3.28;;;6.20;99.90;;;;;;5073430;28;20040;-74
2022/03/28 07:22:57;;;;;;;6.05;2.97;;;6.20;99.90;;;;;;5072726;28;20029;-75
2022/03/28 07:25:25;;;;;;;8.30;3.65;;;6.30;99.90;;;;;;5065725;28;20036;-75
2022/03/28 07:27:52;;;;;;;5.78;3.15;;;6.40;99.90;;;;;;5066124;28;20025;-75
2022/03/28 07:30:18;;;;;;;5.43;2.75;;;6.40;99.90;;;;;;5066158;28;20025;-74
2022/03/28 07:32:50;;;;;;;6.95;3.22;;;6.40;99.90;;;;;;5066047;28;20099;-74
2022/03/28 07:35:17;;;;;;;6.28;3.60;;;6.50;99.90;;;;;;5066243;28;20032;-75
2022/03/28 07:37:43;;;;;;;8.02;3.08;;;6.50;99.90;;;;;;5066075;28;20041;-73
2022/03/28 07:40:10;;;;;;;6.93;2.65;;;6.60;99.90;;;;;;5065606;28;20025;-74
2022/03/28 07:42:37;;;;;;;6.10;3.65;;;6.60;99.90;;;;;;5065506;28;20035;-74
2022/03/28 07:45:05;;;;;;;6.95;3.17;;;6.60;99.90;;;;;;5065732;28;20021;-74
2022/03/28 07:47:31;;;;;;;9.68;3.22;;;6.70;99.90;;;;;;5069157;28;20036;-74
2022/03/28 07:49:58;;;;;;;6.80;3.33;;;6.80;99.90;;;;;;5075007;28;20029;-74
2022/03/28 07:52:24;;;;;;;3.45;2.08;;;6.80;99.90;;;;;;5066028;28;20025;-73
2022/03/28 07:54:50;;;;;;;6.93;3.60;;;6.80;99.90;;;;;;5064472;28;20029;-75
2022/03/28 07:57:18;;;;;;;8.25;3.47;;;6.90;99.90;;;;;;5074285;28;20104;-74
2022/03/28 07:59:48;;;;;;;5.38;3.35;;;6.90;99.90;;;;;;5072169;28;20036;-74
2022/03/28 08:02:15;;;;;;;7.13;3.53;;;6.80;99.90;;;;;;5083575;28;20036;-75
2022/03/28 08:04:43;;;;;;;6.93;3.50;;;6.80;99.90;;;;;;5085518;28;20032;-74
2022/03/28 08:07:10;;;;;;;7.47;2.78;;;6.80;99.90;;;;;;5073479;28;20036;-74
2022/03/28 08:09:36;;;;;;;6.07;2.60;;;6.90;99.90;;;;;;5068745;28;20096;-75
2022/03/28 08:12:03;;;;;;;3.47;2.13;;;7.00;99.90;;;;;;5080634;28;20025;-76
2022/03/28 08:14:29;;;;;;;5.05;3.35;;;7.00;99.90;;;;;;5084527;28;20055;-74
2022/03/28 08:16:55;;;;;;;3.42;1.90;;;7.10;99.90;;;;;;5073586;28;20037;-75
2022/03/28 08:19:21;;;;;;;3.35;2.03;;;7.20;99.90;;;;;;5069411;28;20056;-76
2022/03/28 08:21:49;;;;;;;4.05;1.80;;;7.20;99.90;;;;;;5072845;28;20024;-75
2022/03/28 08:24:14;;;;;;;4.60;2.40;;;7.30;99.90;;;;;;5065794;28;20032;-74
2022/03/28 08:26:40;;;;;;;7.22;2.53;;;7.30;99.90;;;;;;5064619;28;20132;-76
2022/03/28 08:29:09;;;;;;;4.03;1.73;;;7.20;99.90;;;;;;5063527;28;20108;-76
2022/03/28 08:31:36;;;;;;;1.40;1.00;;;7.20;99.90;;;;;;5068390;28;20123;-73
2022/03/28 08:34:02;;;;;;;2.42;1.45;;;7.30;99.90;;;;;;5067493;28;20025;-74
2022/03/28 08:36:49;;;;;;;3.03;1.80;;;7.30;99.90;;;;;;5067248;28;20216;-75
2022/03/28 08:39:15;;;;;;;2.40;1.65;;;7.40;99.90;;;;;;5069968;28;20036;-75
2022/03/28 08:41:41;;;;;;;3.67;1.58;;;7.50;99.90;;;;;;5077380;28;20487;-73
2022/03/28 08:44:07;;;;;;;4.30;1.55;;;7.60;99.90;;;;;;5073257;28;20441;-73
2022/03/28 08:46:33;;;;;;;3.45;1.63;;;7.70;99.90;;;;;;5064649;28;20071;-73
2022/03/28 08:48:59;;;;;;;2.88;1.55;;;7.70;99.90;;;;;;5069043;28;20032;-73
2022/03/28 08:51:40;;;;;;;4.78;2.38;;;7.70;99.90;;;;;;5063387;28;20032;-75
2022/03/28 08:54:06;;;;;;;5.07;2.47;;;7.80;99.90;;;;;;5069323;28;20028;-73
2022/03/28 08:56:32;;;;;;;5.18;2.45;;;7.90;99.90;;;;;;5070909;28;20031;-75
2022/03/28 08:58:57;;;;;;;4.70;2.60;;;8.10;99.90;;;;;;5079777;28;20056;-74
2022/03/28 09:01:23;;;;;;;4.38;1.98;;;8.20;99.90;;;;;;5078285;28;20428;-75
2022/03/28 09:03:50;;;;;;;6.10;2.85;;;8.30;99.90;;;;;;5078702;28;20039;-76
2022/03/28 09:06:37;;;;;;;8.15;2.28;;;8.30;99.90;;;;;;5077219;28;20088;-74
2022/03/28 09:09:16;;;;;;;6.63;3.45;;;8.30;99.90;;;;;;5063885;28;20068;-74
2022/03/28 09:11:43;;;;;;;4.72;2.28;;;8.30;99.90;;;;;;5084278;28;20029;-75
2022/03/28 09:14:23;;;;;;;4.22;2.13;;;8.40;99.90;;;;;;5067915;28;20037;-74
2022/03/28 09:17:26;;;;;;;4.00;2.42;;;8.40;99.90;;;;;;5063500;28;20029;-75
2022/03/28 09:20:02;;;;;;;6.43;3.28;;;8.50;99.90;;;;;;5067331;28;20079;-75
2022/03/28 09:22:30;;;;;;;6.57;2.55;;;8.50;99.90;;;;;;5067417;28;20035;-74
2022/03/28 09:24:58;;;;;;;11.75;3.15;;;8.60;99.90;;;;;;5076767;28;20043;-77
2022/03/28 09:27:27;;;;;;;7.50;3.35;;;8.60;99.90;;;;;;5081778;28;20115;-75
2022/03/28 09:30:07;;;;;;;8.27;2.72;;;8.60;99.90;;;;;;5074978;28;20028;-75
2022/03/28 09:32:54;;;;;;;3.88;1.75;;;8.70;99.90;;;;;;5078762;28;20048;-72
2022/03/28 09:35:38;;;;;;;5.15;2.40;;;8.60;99.90;;;;;;5075674;28;20017;-75
2022/03/28 09:38:05;;;;;;;4.30;2.78;;;8.60;99.90;;;;;;5068319;28;20037;-73
2022/03/28 09:40:31;;;;;;;4.68;2.28;;;8.60;99.90;;;;;;5066704;28;20059;-76
2022/03/28 09:42:58;;;;;;;3.70;2.25;;;8.70;99.90;;;;;;5068155;28;20025;-74
2022/03/28 09:45:37;;;;;;;5.05;2.85;;;8.70;99.90;;;;;;5070074;28;20025;-75
2022/03/28 09:48:09;;;;;;;5.25;2.80;;;8.80;99.90;;;;;;5075179;28;20035;-74
2022/03/28 09:50:40;;;;;;;4.03;2.72;;;8.90;99.90;;;;;;5066361;28;20021;-75
2022/03/28 09:53:15;;;;;;;7.60;3.33;;;8.90;99.90;;;;;;5066740;28;20025;-75
2022/03/28 09:55:53;;;;;;;6.50;3.10;;;8.90;99.90;;;;;;5063979;28;20052;-77
2022/03/28 09:58:43;;;;;;;5.15;2.88;;;9.00;99.90;;;;;;5067518;28;20048;-74
2022/03/28 10:01:28;;;;;;;5.43;2.65;;;9.00;99.90;;;;;;5067309;28;20031;-74
2022/03/28 10:03:56;;;;;;;4.88;2.60;;;9.10;99.90;;;;;;5066148;28;20447;-74
2022/03/28 10:06:23;;;;;;;6.70;3.25;;;9.20;99.90;;;;;;5067849;28;20021;-75
2022/03/28 10:08:50;;;;;;;6.82;3.22;;;9.30;99.90;;;;;;5066727;28;20025;-75
2022/03/28 10:11:16;;;;;;;4.72;2.80;;;9.50;99.90;;;;;;5067098;28;20028;-75
2022/03/28 10:13:43;;;;;;;5.22;2.60;;;9.80;99.90;;;;;;5066076;28;20032;-74
2022/03/28 10:16:13;;;;;;;8.50;2.97;;;9.90;99.90;;;;;;5067367;28;20032;-76
2022/03/28 10:18:41;;;;;;;4.50;2.53;;;10.10;99.90;;;;;;5065354;28;20787;-74
2022/03/28 10:21:27;;;;;;;6.15;2.85;;;10.30;99.90;;;;;;5066482;28;20028;-75
2022/03/28 10:23:56;;;;;;;9.02;3.30;;;10.70;99.90;;;;;;5080435;28;20021;-75
2022/03/28 10:26:31;;;;;;;6.20;3.58;;;10.90;99.90;;;;;;5079915;28;20021;-76
2022/03/28 10:29:05;;;;;;;6.70;2.60;;;10.80;99.90;;;;;;5072977;28;20668;-74
2022/03/28 10:31:32;;;;;;;5.57;2.65;;;10.80;99.90;;;;;;5067422;28;20021;-74
2022/03/28 10:33:58;;;;;;;6.30;3.78;;;10.70;99.90;;;;;;5065641;28;20035;-74
2022/03/28 10:36:29;;;;;;;4.70;2.45;;;10.70;99.90;;;;;;5083972;28;20028;-75
2022/03/28 10:39:35;;;;;;;7.13;3.03;;;10.70;99.90;;;;;;5087257;28;20044;-75
2022/03/28 10:42:16;;;;;;;6.25;3.40;;;10.70;99.90;;;;;;5066661;28;20035;-74
2022/03/28 10:44:57;;;;;;;12.45;3.40;;;10.70;99.90;;;;;;5085171;28;20052;-76
2022/03/28 10:47:48;;;;;;;5.90;3.00;;;10.50;99.90;;;;;;5083897;28;20025;-74
2022/03/28 10:50:20;;;;;;;7.28;3.63;;;10.50;99.90;;;;;;5078795;28;20025;-77
2022/03/28 10:53:08;;;;;;;7.18;3.55;;;10.50;99.90;;;;;;5085359;28;20028;-75
2022/03/28 10:55:53;;;;;;;8.18;3.70;;;10.50;99.90;;;;;;5084777;28;20415;-76
2022/03/28 10:58:29;;;;;;;7.82;3.53;;;10.60;99.90;;;;;;5086954;28;20053;-75
2022/03/28 11:01:18;;;;;;;4.43;2.88;;;10.70;99.90;;;;;;5066574;28;20040;-76
2022/03/28 11:03:53;;;;;;;8.50;3.70;;;10.60;99.90;;;;;;5069723;28;20033;-76
2022/03/28 11:06:39;;;;;;;9.48;4.43;;;10.40;99.90;;;;;;5068711;28;20025;-75
2022/03/28 11:09:05;;;;;;;11.10;3.42;;;10.30;99.90;;;;;;5064547;28;20021;-76
2022/03/28 11:11:33;;;;;;;10.32;4.72;;;10.40;99.90;;;;;;5069240;28;20031;-74
2022/03/28 11:14:03;;;;;;;13.38;4.40;;;10.30;99.90;;;;;;5072944;28;20111;-76
2022/03/28 11:17:01;;;;;;;7.03;4.00;;;10.30;99.90;;;;;;5066204;28;20017;-75
2022/03/28 11:19:50;;;;;;;6.97;3.83;;;10.30;99.90;;;;;;5065874;28;20033;-75
2022/03/28 11:22:16;;;;;;;11.10;3.65;;;10.20;99.90;;;;;;5069840;28;20088;-76
2022/03/28 11:24:58;;;;;;;8.38;4.07;;;10.30;99.90;;;;;;5080982;28;20066;-79
2022/03/28 11:27:30;;;;;;;7.60;3.35;;;10.40;99.90;;;;;;5066424;28;20044;-76
2022/03/28 11:30:03;;;;;;;9.48;4.07;;;10.60;99.90;;;;;;5064977;28;20021;-75
2022/03/28 11:32:31;;;;;;;8.02;3.97;;;10.70;99.90;;;;;;5076514;28;20033;-76
2022/03/28 11:34:59;;;;;;;6.30;3.53;;;10.70;99.90;;;;;;5078217;28;20036;-75
2022/03/28 11:37:26;;;;;;;7.22;3.67;;;10.80;99.90;;;;;;5084078;28;20040;-75
2022/03/28 11:39:59;;;;;;;8.45;3.92;;;10.80;99.90;;;;;;5086122;28;20027;-75
2022/03/28 11:42:28;;;;;;;4.60;3.08;;;10.90;99.90;;;;;;5077443;28;20035;-77
2022/03/28 11:44:55;;;;;;;5.05;2.92;;;10.90;99.90;;;;;;5065601;28;20033;-75
2022/03/28 11:47:22;;;;;;;5.03;3.20;;;10.90;99.90;;;;;;5065274;28;20055;-76
2022/03/28 11:49:56;;;;;;;7.72;2.47;;;10.90;99.90;;;;;;5065491;28;20104;-74
2022/03/28 11:52:23;;;;;;;16.42;2.97;;;11.00;99.90;;;;;;5065737;28;20033;-74
2022/03/28 11:54:49;;;;;;;4.32;2.42;;;11.10;99.90;;;;;;5065196;28;20031;-75
2022/03/28 12:00:22;;;;;;;5.07;2.55;;;11.20;99.90;;;;;;5065704;28;20032;-76
2022/03/28 12:03:20;;;;;;;8.25;3.25;;;11.00;99.90;;;;;;5065740;28;20142;-76
2022/03/28 12:05:55;;;;;;;9.27;3.55;;;11.00;99.90;;;;;;5064640;28;20068;-74
2022/03/28 12:08:21;;;;;;;16.75;3.95;;;10.90;99.90;;;;;;5085724;28;20029;-78
2022/03/28 12:10:52;;;;;;;6.30;2.78;;;11.00;99.90;;;;;;5085563;28;20059;-76
2022/03/28 12:13:21;;;;;;;5.45;3.08;;;11.10;99.90;;;;;;5082198;28;20392;-76
2022/03/28 12:15:49;;;;;;;5.55;3.20;;;11.10;99.90;;;;;;5069146;28;20047;-75
2022/03/28 12:18:18;;;;;;;5.10;2.78;;;11.20;99.90;;;;;;5064596;28;20047;-75
2022/03/28 12:20:50;;;;;;;6.07;2.72;;;11.10;99.90;;;;;;5064137;28;20029;-77
2022/03/28 12:23:20;;;;;;;6.23;3.13;;;11.00;99.90;;;;;;5064385;28;20346;-78
2022/03/28 12:25:47;;;;;;;4.85;2.88;;;10.90;99.90;;;;;;5079219;28;20374;-78
2022/03/28 12:28:29;;;;;;;4.70;2.33;;;10.90;99.90;;;;;;5072795;28;20028;-75
2022/03/28 12:31:07;;;;;;;4.20;2.53;;;10.90;99.90;;;;;;5084917;28;20025;-77
2022/03/28 12:33:38;;;;;;;9.48;2.97;;;10.90;99.90;;;;;;5063274;28;20037;-75
2022/03/28 12:36:12;;;;;;;4.68;2.38;;;10.70;99.90;;;;;;5064890;28;20057;-76
2022/03/28 12:38:43;;;;;;;9.10;3.00;;;10.90;99.90;;;;;;5064984;28;21546;-75
2022/03/28 12:41:12;;;;;;;7.70;2.88;;;11.00;99.90;;;;;;5080596;28;20103;-75
2022/03/28 12:43:49;;;;;;;3.88;2.47;;;10.90;99.90;;;;;;5084947;28;20031;-75
2022/03/28 12:46:16;;;;;;;7.22;3.13;;;10.90;99.90;;;;;;5085046;28;20032;-74
2022/03/28 12:48:52;;;;;;;7.82;3.08;;;11.00;99.90;;;;;;5084786;28;20043;-73
2022/03/28 12:51:36;;;;;;;5.05;2.53;;;10.90;99.90;;;;;;5083631;28;20505;-76
2022/03/28 12:54:19;;;;;;;3.53;2.13;;;10.90;99.90;;;;;;5084314;28;20052;-76
2022/03/28 12:56:49;;;;;;;7.72;2.78;;;11.00;99.90;;;;;;5083595;28;20076;-79
2022/03/28 12:59:22;;;;;;;4.95;2.50;;;11.10;99.90;;;;;;5085089;28;20488;-77
2022/03/28 13:02:31;;;;;;;6.63;3.08;;;11.00;99.90;;;;;;5078433;28;20033;-76
2022/03/28 13:05:16;;;;;;;5.10;2.72;;;11.00;99.90;;;;;;5071141;28;20025;-77
2022/03/28 13:07:53;;;;;;;4.72;2.70;;;10.80;99.90;;;;;;5081550;28;20028;-77